sensor_id;sensor_type;location;lat;lon;timestamp;temperature;humidity
78696;SHT31;68030;51.980;5.646;2023-10-09T00:00:14;17.5;70.6
78696;SHT31;68030;51.980;5.646;2023-10-09T00:03:09;17.6;70.9
78696;SHT31;68030;51.980;5.646;2023-10-09T00:05:39;17.6;70.4
78696;SHT31;68030;51.980;5.646;2023-10-09T00:08:13;17.6;70.3
78696;SHT31;68030;51.980;5.646;2023-10-09T00:10:48;17.5;70.6
78696;SHT31;68030;51.980;5.646;2023-10-09T00:13:19;17.5;70.6
78696;SHT31;68030;51.980;5.646;2023-10-09T00:15:53;17.5;70.8
78696;SHT31;68030;51.980;5.646;2023-10-09T00:18:27;17.5;71.1
78696;SHT31;68030;51.980;5.646;2023-10-09T00:21:01;17.5;71.0
78696;SHT31;68030;51.980;5.646;2023-10-09T00:23:38;17.5;71.1
78696;SHT31;68030;51.980;5.646;2023-10-09T00:26:08;17.5;71.1
78696;SHT31;68030;51.980;5.646;2023-10-09T00:28:41;17.5;71.2
78696;SHT31;68030;51.980;5.646;2023-10-09T00:31:14;17.5;71.2
78696;SHT31;68030;51.980;5.646;2023-10-09T00:33:49;17.5;71.4
78696;SHT31;68030;51.980;5.646;2023-10-09T00:36:18;17.5;71.4
78696;SHT31;68030;51.980;5.646;2023-10-09T00:38:54;17.5;71.6
78696;SHT31;68030;51.980;5.646;2023-10-09T00:41:27;17.5;71.6
78696;SHT31;68030;51.980;5.646;2023-10-09T00:44:00;17.5;71.7
78696;SHT31;68030;51.980;5.646;2023-10-09T00:46:34;17.5;71.1
78696;SHT31;68030;51.980;5.646;2023-10-09T00:49:08;17.6;71.2
78696;SHT31;68030;51.980;5.646;2023-10-09T00:51:45;17.6;71.1
78696;SHT31;68030;51.980;5.646;2023-10-09T00:54:22;17.6;71.5
78696;SHT31;68030;51.980;5.646;2023-10-09T00:56:54;17.6;71.4
78696;SHT31;68030;51.980;5.646;2023-10-09T00:59:31;17.6;71.2
78696;SHT31;68030;51.980;5.646;2023-10-09T01:02:00;17.6;71.4
78696;SHT31;68030;51.980;5.646;2023-10-09T01:04:33;17.7;71.4
78696;SHT31;68030;51.980;5.646;2023-10-09T01:07:05;17.7;71.2
78696;SHT31;68030;51.980;5.646;2023-10-09T01:09:39;17.7;71.1
78696;SHT31;68030;51.980;5.646;2023-10-09T01:12:11;17.8;71.2
78696;SHT31;68030;51.980;5.646;2023-10-09T01:14:45;17.8;71.0
78696;SHT31;68030;51.980;5.646;2023-10-09T01:17:21;17.8;70.9
78696;SHT31;68030;51.980;5.646;2023-10-09T01:20:02;17.9;70.9
78696;SHT31;68030;51.980;5.646;2023-10-09T01:22:38;17.9;70.8
78696;SHT31;68030;51.980;5.646;2023-10-09T01:25:09;17.9;70.9
78696;SHT31;68030;51.980;5.646;2023-10-09T01:27:38;17.9;70.9
78696;SHT31;68030;51.980;5.646;2023-10-09T01:30:07;18.0;70.9
78696;SHT31;68030;51.980;5.646;2023-10-09T01:32:40;18.0;70.8
78696;SHT31;68030;51.980;5.646;2023-10-09T01:35:09;18.0;70.7
78696;SHT31;68030;51.980;5.646;2023-10-09T01:37:45;18.1;70.6
78696;SHT31;68030;51.980;5.646;2023-10-09T01:40:18;18.1;70.5
78696;SHT31;68030;51.980;5.646;2023-10-09T01:42:51;18.1;70.5
78696;SHT31;68030;51.980;5.646;2023-10-09T01:45:20;18.1;70.5
78696;SHT31;68030;51.980;5.646;2023-10-09T01:47:56;18.2;70.4
78696;SHT31;68030;51.980;5.646;2023-10-09T01:50:29;18.2;70.3
78696;SHT31;68030;51.980;5.646;2023-10-09T01:53:02;18.3;70.2
78696;SHT31;68030;51.980;5.646;2023-10-09T01:55:36;18.3;70.2
78696;SHT31;68030;51.980;5.646;2023-10-09T01:58:07;18.3;70.2
78696;SHT31;68030;51.980;5.646;2023-10-09T02:00:41;18.4;70.1
78696;SHT31;68030;51.980;5.646;2023-10-09T02:03:15;18.4;70.1
78696;SHT31;68030;51.980;5.646;2023-10-09T02:05:44;18.4;69.9
78696;SHT31;68030;51.980;5.646;2023-10-09T02:08:14;18.5;69.9
78696;SHT31;68030;51.980;5.646;2023-10-09T02:10:48;18.5;69.8
78696;SHT31;68030;51.980;5.646;2023-10-09T02:13:22;18.5;69.7
78696;SHT31;68030;51.980;5.646;2023-10-09T02:15:56;18.5;69.6
78696;SHT31;68030;51.980;5.646;2023-10-09T02:18:31;18.6;69.5
78696;SHT31;68030;51.980;5.646;2023-10-09T02:21:13;18.6;69.4
78696;SHT31;68030;51.980;5.646;2023-10-09T02:23:41;18.6;69.4
78696;SHT31;68030;51.980;5.646;2023-10-09T02:26:19;18.6;69.3
78696;SHT31;68030;51.980;5.646;2023-10-09T02:28:52;18.7;69.2
78696;SHT31;68030;51.980;5.646;2023-10-09T02:31:25;18.7;69.2
78696;SHT31;68030;51.980;5.646;2023-10-09T02:33:59;18.7;69.1
78696;SHT31;68030;51.980;5.646;2023-10-09T02:36:31;18.7;69.1
78696;SHT31;68030;51.980;5.646;2023-10-09T02:39:02;18.7;69.0
78696;SHT31;68030;51.980;5.646;2023-10-09T02:41:33;18.8;68.9
78696;SHT31;68030;51.980;5.646;2023-10-09T02:44:07;18.8;68.9
78696;SHT31;68030;51.980;5.646;2023-10-09T02:46:39;18.8;68.9
78696;SHT31;68030;51.980;5.646;2023-10-09T02:49:12;18.8;69.0
78696;SHT31;68030;51.980;5.646;2023-10-09T02:51:42;18.8;69.0
78696;SHT31;68030;51.980;5.646;2023-10-09T02:54:16;18.8;69.0
78696;SHT31;68030;51.980;5.646;2023-10-09T02:56:53;18.8;69.0
78696;SHT31;68030;51.980;5.646;2023-10-09T02:59:29;18.8;69.1
78696;SHT31;68030;51.980;5.646;2023-10-09T03:01:57;18.8;69.0
78696;SHT31;68030;51.980;5.646;2023-10-09T03:04:27;18.8;69.1
78696;SHT31;68030;51.980;5.646;2023-10-09T03:06:57;18.8;69.0
78696;SHT31;68030;51.980;5.646;2023-10-09T03:09:27;18.9;69.1
78696;SHT31;68030;51.980;5.646;2023-10-09T03:12:00;18.9;69.0
78696;SHT31;68030;51.980;5.646;2023-10-09T03:14:35;18.9;69.1
78696;SHT31;68030;51.980;5.646;2023-10-09T03:17:05;18.9;69.0
78696;SHT31;68030;51.980;5.646;2023-10-09T03:19:37;18.9;69.1
78696;SHT31;68030;51.980;5.646;2023-10-09T03:22:07;18.9;69.1
78696;SHT31;68030;51.980;5.646;2023-10-09T03:24:38;18.9;69.2
78696;SHT31;68030;51.980;5.646;2023-10-09T03:27:09;18.9;69.2
78696;SHT31;68030;51.980;5.646;2023-10-09T03:29:40;18.9;69.2
78696;SHT31;68030;51.980;5.646;2023-10-09T03:32:13;18.9;69.2
78696;SHT31;68030;51.980;5.646;2023-10-09T03:34:42;18.9;69.3
78696;SHT31;68030;51.980;5.646;2023-10-09T03:37:11;18.9;69.2
78696;SHT31;68030;51.980;5.646;2023-10-09T03:39:45;19.0;69.3
78696;SHT31;68030;51.980;5.646;2023-10-09T03:42:17;19.0;69.3
78696;SHT31;68030;51.980;5.646;2023-10-09T03:44:49;19.0;69.4
78696;SHT31;68030;51.980;5.646;2023-10-09T03:47:19;19.0;69.4
78696;SHT31;68030;51.980;5.646;2023-10-09T03:49:50;19.0;69.4
78696;SHT31;68030;51.980;5.646;2023-10-09T03:52:20;19.0;69.5
78696;SHT31;68030;51.980;5.646;2023-10-09T03:54:54;19.0;69.5
78696;SHT31;68030;51.980;5.646;2023-10-09T03:57:22;19.0;69.6
78696;SHT31;68030;51.980;5.646;2023-10-09T03:59:51;19.0;69.7
78696;SHT31;68030;51.980;5.646;2023-10-09T04:02:21;19.0;69.7
78696;SHT31;68030;51.980;5.646;2023-10-09T04:04:51;19.0;69.7
78696;SHT31;68030;51.980;5.646;2023-10-09T04:07:19;19.0;69.6
78696;SHT31;68030;51.980;5.646;2023-10-09T04:09:48;19.0;69.7
78696;SHT31;68030;51.980;5.646;2023-10-09T04:12:22;19.0;69.6
78696;SHT31;68030;51.980;5.646;2023-10-09T04:14:51;19.0;69.6
78696;SHT31;68030;51.980;5.646;2023-10-09T04:17:24;19.0;69.7
78696;SHT31;68030;51.980;5.646;2023-10-09T04:20:04;19.0;69.8
78696;SHT31;68030;51.980;5.646;2023-10-09T04:23:07;19.0;69.8
78696;SHT31;68030;51.980;5.646;2023-10-09T04:25:40;19.0;69.8
78696;SHT31;68030;51.980;5.646;2023-10-09T04:28:12;19.0;69.9
78696;SHT31;68030;51.980;5.646;2023-10-09T04:30:48;19.1;70.0
78696;SHT31;68030;51.980;5.646;2023-10-09T04:33:22;19.1;70.0
78696;SHT31;68030;51.980;5.646;2023-10-09T04:36:03;19.1;70.0
78696;SHT31;68030;51.980;5.646;2023-10-09T04:38:48;19.1;70.1
78696;SHT31;68030;51.980;5.646;2023-10-09T04:41:48;19.1;70.2
78696;SHT31;68030;51.980;5.646;2023-10-09T04:44:25;19.1;70.3
78696;SHT31;68030;51.980;5.646;2023-10-09T04:46:59;19.1;70.3
78696;SHT31;68030;51.980;5.646;2023-10-09T04:51:19;19.1;70.6
78696;SHT31;68030;51.980;5.646;2023-10-09T04:53:55;19.1;70.7
78696;SHT31;68030;51.980;5.646;2023-10-09T04:56:33;19.1;70.8
78696;SHT31;68030;51.980;5.646;2023-10-09T04:59:06;19.1;70.9
78696;SHT31;68030;51.980;5.646;2023-10-09T05:01:37;19.1;71.0
78696;SHT31;68030;51.980;5.646;2023-10-09T05:04:10;19.1;71.1
78696;SHT31;68030;51.980;5.646;2023-10-09T05:06:49;19.1;71.1
78696;SHT31;68030;51.980;5.646;2023-10-09T05:09:24;19.1;71.0
78696;SHT31;68030;51.980;5.646;2023-10-09T05:11:58;19.1;71.1
78696;SHT31;68030;51.980;5.646;2023-10-09T05:14:42;19.1;71.1
78696;SHT31;68030;51.980;5.646;2023-10-09T05:17:18;19.1;71.1
78696;SHT31;68030;51.980;5.646;2023-10-09T05:19:51;19.2;71.1
78696;SHT31;68030;51.980;5.646;2023-10-09T05:22:28;19.2;71.1
78696;SHT31;68030;51.980;5.646;2023-10-09T05:25:06;19.2;71.1
78696;SHT31;68030;51.980;5.646;2023-10-09T05:27:42;19.2;71.1
78696;SHT31;68030;51.980;5.646;2023-10-09T05:30:17;19.2;71.1
78696;SHT31;68030;51.980;5.646;2023-10-09T05:32:59;19.2;71.0
78696;SHT31;68030;51.980;5.646;2023-10-09T05:35:32;19.3;71.0
78696;SHT31;68030;51.980;5.646;2023-10-09T05:38:14;19.3;71.0
78696;SHT31;68030;51.980;5.646;2023-10-09T05:40:53;19.3;71.0
78696;SHT31;68030;51.980;5.646;2023-10-09T05:43:29;19.3;71.0
78696;SHT31;68030;51.980;5.646;2023-10-09T05:46:14;19.3;71.0
78696;SHT31;68030;51.980;5.646;2023-10-09T05:48:42;19.3;70.9
78696;SHT31;68030;51.980;5.646;2023-10-09T05:51:30;19.4;70.8
78696;SHT31;68030;51.980;5.646;2023-10-09T05:54:26;19.4;70.9
78696;SHT31;68030;51.980;5.646;2023-10-09T05:59:10;19.4;70.8
78696;SHT31;68030;51.980;5.646;2023-10-09T06:02:57;19.4;70.8
78696;SHT31;68030;51.980;5.646;2023-10-09T06:06:31;19.4;70.7
78696;SHT31;68030;51.980;5.646;2023-10-09T06:09:09;19.5;70.6
78696;SHT31;68030;51.980;5.646;2023-10-09T06:11:45;19.5;70.7
78696;SHT31;68030;51.980;5.646;2023-10-09T06:14:16;19.5;70.6
78696;SHT31;68030;51.980;5.646;2023-10-09T06:16:52;19.5;70.5
78696;SHT31;68030;51.980;5.646;2023-10-09T06:19:36;19.6;70.4
78696;SHT31;68030;51.980;5.646;2023-10-09T06:22:10;19.6;70.2
78696;SHT31;68030;51.980;5.646;2023-10-09T06:24:53;19.6;70.2
78696;SHT31;68030;51.980;5.646;2023-10-09T06:27:23;19.7;70.1
78696;SHT31;68030;51.980;5.646;2023-10-09T06:30:00;19.7;70.2
78696;SHT31;68030;51.980;5.646;2023-10-09T06:32:47;19.7;70.2
78696;SHT31;68030;51.980;5.646;2023-10-09T06:35:26;19.7;70.1
78696;SHT31;68030;51.980;5.646;2023-10-09T06:38:00;19.7;70.1
78696;SHT31;68030;51.980;5.646;2023-10-09T06:40:48;19.7;70.1
78696;SHT31;68030;51.980;5.646;2023-10-09T06:44:04;19.7;70.1
78696;SHT31;68030;51.980;5.646;2023-10-09T06:46:39;19.7;70.1
78696;SHT31;68030;51.980;5.646;2023-10-09T06:49:18;19.7;70.1
78696;SHT31;68030;51.980;5.646;2023-10-09T06:51:59;19.7;70.1
78696;SHT31;68030;51.980;5.646;2023-10-09T06:54:42;19.8;70.1
78696;SHT31;68030;51.980;5.646;2023-10-09T06:57:17;19.8;70.1
78696;SHT31;68030;51.980;5.646;2023-10-09T07:00:04;19.8;70.2
78696;SHT31;68030;51.980;5.646;2023-10-09T07:02:49;19.8;70.2
78696;SHT31;68030;51.980;5.646;2023-10-09T07:05:20;19.8;70.2
78696;SHT31;68030;51.980;5.646;2023-10-09T07:07:55;19.8;70.3
78696;SHT31;68030;51.980;5.646;2023-10-09T07:10:32;19.8;70.4
78696;SHT31;68030;51.980;5.646;2023-10-09T07:13:06;19.8;70.5
78696;SHT31;68030;51.980;5.646;2023-10-09T07:15:34;19.8;70.4
78696;SHT31;68030;51.980;5.646;2023-10-09T07:20:15;19.9;70.5
78696;SHT31;68030;51.980;5.646;2023-10-09T07:22:51;19.9;70.5
78696;SHT31;68030;51.980;5.646;2023-10-09T07:25:29;19.9;70.6
78696;SHT31;68030;51.980;5.646;2023-10-09T07:28:46;19.9;70.5
78696;SHT31;68030;51.980;5.646;2023-10-09T07:31:20;20.0;70.5
78696;SHT31;68030;51.980;5.646;2023-10-09T07:34:00;20.0;70.4
78696;SHT31;68030;51.980;5.646;2023-10-09T07:36:35;20.0;70.4
78696;SHT31;68030;51.980;5.646;2023-10-09T07:39:05;20.0;70.4
78696;SHT31;68030;51.980;5.646;2023-10-09T07:41:43;20.0;70.3
78696;SHT31;68030;51.980;5.646;2023-10-09T07:44:28;20.0;70.3
78696;SHT31;68030;51.980;5.646;2023-10-09T07:47:04;20.1;70.3
78696;SHT31;68030;51.980;5.646;2023-10-09T07:49:49;20.1;70.4
78696;SHT31;68030;51.980;5.646;2023-10-09T07:52:27;20.1;70.5
78696;SHT31;68030;51.980;5.646;2023-10-09T07:54:56;20.1;70.7
78696;SHT31;68030;51.980;5.646;2023-10-09T07:57:32;20.1;70.8
78696;SHT31;68030;51.980;5.646;2023-10-09T08:00:09;20.1;70.7
78696;SHT31;68030;51.980;5.646;2023-10-09T08:03:08;20.2;70.6
78696;SHT31;68030;51.980;5.646;2023-10-09T08:05:44;20.2;70.6
78696;SHT31;68030;51.980;5.646;2023-10-09T08:08:12;20.3;70.4
78696;SHT31;68030;51.980;5.646;2023-10-09T08:11:03;20.3;70.4
78696;SHT31;68030;51.980;5.646;2023-10-09T08:13:48;20.4;70.3
78696;SHT31;68030;51.980;5.646;2023-10-09T08:16:29;20.4;70.4
78696;SHT31;68030;51.980;5.646;2023-10-09T08:19:07;20.5;70.2
78696;SHT31;68030;51.980;5.646;2023-10-09T08:21:53;20.5;70.3
78696;SHT31;68030;51.980;5.646;2023-10-09T08:24:41;20.6;70.3
78696;SHT31;68030;51.980;5.646;2023-10-09T08:27:14;20.6;70.4
78696;SHT31;68030;51.980;5.646;2023-10-09T08:30:21;20.7;69.9
78696;SHT31;68030;51.980;5.646;2023-10-09T08:33:56;20.7;69.9
78696;SHT31;68030;51.980;5.646;2023-10-09T08:36:25;20.8;70.0
78696;SHT31;68030;51.980;5.646;2023-10-09T08:38:55;20.8;69.7
78696;SHT31;68030;51.980;5.646;2023-10-09T08:41:27;20.9;69.6
78696;SHT31;68030;51.980;5.646;2023-10-09T08:44:01;20.9;69.3
78696;SHT31;68030;51.980;5.646;2023-10-09T08:46:32;21.0;69.1
78696;SHT31;68030;51.980;5.646;2023-10-09T08:49:06;21.0;68.8
78696;SHT31;68030;51.980;5.646;2023-10-09T08:51:37;21.1;68.8
78696;SHT31;68030;51.980;5.646;2023-10-09T08:54:08;21.1;69.0
78696;SHT31;68030;51.980;5.646;2023-10-09T08:56:41;21.2;69.1
78696;SHT31;68030;51.980;5.646;2023-10-09T08:59:16;21.2;68.8
78696;SHT31;68030;51.980;5.646;2023-10-09T09:01:48;21.3;68.4
78696;SHT31;68030;51.980;5.646;2023-10-09T09:04:38;21.4;67.9
78696;SHT31;68030;51.980;5.646;2023-10-09T09:07:27;21.4;68.2
78696;SHT31;68030;51.980;5.646;2023-10-09T09:10:01;21.5;68.1
78696;SHT31;68030;51.980;5.646;2023-10-09T09:12:38;21.5;68.1
78696;SHT31;68030;51.980;5.646;2023-10-09T09:15:13;21.6;67.6
78696;SHT31;68030;51.980;5.646;2023-10-09T09:17:48;21.6;67.2
78696;SHT31;68030;51.980;5.646;2023-10-09T09:20:21;21.7;66.9
78696;SHT31;68030;51.980;5.646;2023-10-09T09:22:56;21.7;66.5
78696;SHT31;68030;51.980;5.646;2023-10-09T09:25:41;21.7;66.8
78696;SHT31;68030;51.980;5.646;2023-10-09T09:28:15;21.8;67.1
78696;SHT31;68030;51.980;5.646;2023-10-09T09:30:48;21.8;67.1
78696;SHT31;68030;51.980;5.646;2023-10-09T09:33:22;21.9;66.9
78696;SHT31;68030;51.980;5.646;2023-10-09T09:36:02;21.9;66.8
78696;SHT31;68030;51.980;5.646;2023-10-09T09:38:33;22.0;66.5
78696;SHT31;68030;51.980;5.646;2023-10-09T09:41:15;22.0;66.7
78696;SHT31;68030;51.980;5.646;2023-10-09T09:43:51;22.1;66.4
78696;SHT31;68030;51.980;5.646;2023-10-09T09:46:23;22.1;65.9
78696;SHT31;68030;51.980;5.646;2023-10-09T09:49:00;22.2;65.9
78696;SHT31;68030;51.980;5.646;2023-10-09T09:51:31;22.2;65.5
78696;SHT31;68030;51.980;5.646;2023-10-09T09:54:01;22.3;64.7
78696;SHT31;68030;51.980;5.646;2023-10-09T09:56:37;22.3;64.4
78696;SHT31;68030;51.980;5.646;2023-10-09T09:59:08;22.3;64.5
78696;SHT31;68030;51.980;5.646;2023-10-09T10:01:43;22.4;64.3
78696;SHT31;68030;51.980;5.646;2023-10-09T10:04:19;22.4;64.3
78696;SHT31;68030;51.980;5.646;2023-10-09T10:06:50;22.4;64.7
78696;SHT31;68030;51.980;5.646;2023-10-09T10:09:37;22.4;64.4
78696;SHT31;68030;51.980;5.646;2023-10-09T10:12:08;22.5;64.8
78696;SHT31;68030;51.980;5.646;2023-10-09T10:14:53;22.5;64.3
78696;SHT31;68030;51.980;5.646;2023-10-09T10:17:25;22.5;63.9
78696;SHT31;68030;51.980;5.646;2023-10-09T10:20:04;22.6;64.1
78696;SHT31;68030;51.980;5.646;2023-10-09T10:23:18;22.6;64.2
78696;SHT31;68030;51.980;5.646;2023-10-09T10:25:52;22.6;63.9
78696;SHT31;68030;51.980;5.646;2023-10-09T10:28:27;22.7;63.7
78696;SHT31;68030;51.980;5.646;2023-10-09T10:31:05;22.7;63.0
78696;SHT31;68030;51.980;5.646;2023-10-09T10:34:06;22.7;63.6
78696;SHT31;68030;51.980;5.646;2023-10-09T10:36:39;22.8;63.4
78696;SHT31;68030;51.980;5.646;2023-10-09T10:39:11;22.8;63.3
78696;SHT31;68030;51.980;5.646;2023-10-09T10:41:52;22.9;62.8
78696;SHT31;68030;51.980;5.646;2023-10-09T10:44:32;22.9;63.1
78696;SHT31;68030;51.980;5.646;2023-10-09T10:47:11;22.9;63.5
78696;SHT31;68030;51.980;5.646;2023-10-09T10:49:55;23.0;63.3
78696;SHT31;68030;51.980;5.646;2023-10-09T10:52:31;23.0;63.0
78696;SHT31;68030;51.980;5.646;2023-10-09T10:55:13;23.1;62.6
78696;SHT31;68030;51.980;5.646;2023-10-09T10:57:51;23.2;62.3
78696;SHT31;68030;51.980;5.646;2023-10-09T11:00:27;23.2;62.3
78696;SHT31;68030;51.980;5.646;2023-10-09T11:03:19;23.3;61.7
78696;SHT31;68030;51.980;5.646;2023-10-09T11:05:52;23.3;61.3
78696;SHT31;68030;51.980;5.646;2023-10-09T11:08:24;23.3;61.9
78696;SHT31;68030;51.980;5.646;2023-10-09T11:11:12;23.4;61.6
78696;SHT31;68030;51.980;5.646;2023-10-09T11:13:46;23.4;61.9
78696;SHT31;68030;51.980;5.646;2023-10-09T11:16:25;23.4;62.0
78696;SHT31;68030;51.980;5.646;2023-10-09T11:19:02;23.5;62.0
78696;SHT31;68030;51.980;5.646;2023-10-09T11:21:37;23.5;61.6
78696;SHT31;68030;51.980;5.646;2023-10-09T11:24:10;23.5;61.4
78696;SHT31;68030;51.980;5.646;2023-10-09T11:26:56;23.6;61.9
78696;SHT31;68030;51.980;5.646;2023-10-09T11:29:32;23.6;61.7
78696;SHT31;68030;51.980;5.646;2023-10-09T11:32:21;23.7;60.9
78696;SHT31;68030;51.980;5.646;2023-10-09T11:35:11;23.7;61.0
78696;SHT31;68030;51.980;5.646;2023-10-09T11:37:41;23.8;61.0
78696;SHT31;68030;51.980;5.646;2023-10-09T11:40:30;23.9;60.7
78696;SHT31;68030;51.980;5.646;2023-10-09T11:43:08;23.9;60.3
78696;SHT31;68030;51.980;5.646;2023-10-09T11:45:39;24.0;59.5
78696;SHT31;68030;51.980;5.646;2023-10-09T11:48:22;24.0;59.1
78696;SHT31;68030;51.980;5.646;2023-10-09T11:50:55;24.0;58.7
78696;SHT31;68030;51.980;5.646;2023-10-09T11:53:41;24.1;58.5
78696;SHT31;68030;51.980;5.646;2023-10-09T11:56:12;24.1;58.7
78696;SHT31;68030;51.980;5.646;2023-10-09T11:58:46;24.1;58.0
78696;SHT31;68030;51.980;5.646;2023-10-09T12:01:16;24.2;57.8
78696;SHT31;68030;51.980;5.646;2023-10-09T12:03:46;24.2;57.5
78696;SHT31;68030;51.980;5.646;2023-10-09T12:06:20;24.2;57.7
78696;SHT31;68030;51.980;5.646;2023-10-09T12:08:50;24.2;57.1
78696;SHT31;68030;51.980;5.646;2023-10-09T12:11:20;24.2;57.4
78696;SHT31;68030;51.980;5.646;2023-10-09T12:13:55;24.2;58.1
78696;SHT31;68030;51.980;5.646;2023-10-09T12:16:27;24.2;57.2
78696;SHT31;68030;51.980;5.646;2023-10-09T12:18:59;24.3;56.2
78696;SHT31;68030;51.980;5.646;2023-10-09T12:21:30;24.3;56.7
78696;SHT31;68030;51.980;5.646;2023-10-09T12:24:01;24.3;56.8
78696;SHT31;68030;51.980;5.646;2023-10-09T12:26:35;24.3;57.0
78696;SHT31;68030;51.980;5.646;2023-10-09T12:29:06;24.3;57.4
78696;SHT31;68030;51.980;5.646;2023-10-09T12:31:37;24.3;56.6
78696;SHT31;68030;51.980;5.646;2023-10-09T12:34:12;24.3;56.3
78696;SHT31;68030;51.980;5.646;2023-10-09T12:36:45;24.3;56.3
78696;SHT31;68030;51.980;5.646;2023-10-09T12:39:13;24.3;56.5
78696;SHT31;68030;51.980;5.646;2023-10-09T12:41:44;24.3;56.3
78696;SHT31;68030;51.980;5.646;2023-10-09T12:44:15;24.3;56.4
78696;SHT31;68030;51.980;5.646;2023-10-09T12:46:47;24.3;56.3
78696;SHT31;68030;51.980;5.646;2023-10-09T12:49:21;24.2;56.7
78696;SHT31;68030;51.980;5.646;2023-10-09T12:51:51;24.2;57.3
78696;SHT31;68030;51.980;5.646;2023-10-09T12:54:20;24.2;57.6
78696;SHT31;68030;51.980;5.646;2023-10-09T12:56:53;24.2;57.5
78696;SHT31;68030;51.980;5.646;2023-10-09T12:59:24;24.2;57.4
78696;SHT31;68030;51.980;5.646;2023-10-09T13:01:53;24.2;57.5
78696;SHT31;68030;51.980;5.646;2023-10-09T13:04:24;24.2;57.8
78696;SHT31;68030;51.980;5.646;2023-10-09T13:06:58;24.2;57.6
78696;SHT31;68030;51.980;5.646;2023-10-09T13:09:30;24.2;57.8
78696;SHT31;68030;51.980;5.646;2023-10-09T13:12:02;24.2;57.5
78696;SHT31;68030;51.980;5.646;2023-10-09T13:14:32;24.2;57.7
78696;SHT31;68030;51.980;5.646;2023-10-09T13:17:02;24.2;57.8
78696;SHT31;68030;51.980;5.646;2023-10-09T13:19:36;24.2;57.3
78696;SHT31;68030;51.980;5.646;2023-10-09T13:22:05;24.2;57.4
78696;SHT31;68030;51.980;5.646;2023-10-09T13:24:38;24.2;57.6
78696;SHT31;68030;51.980;5.646;2023-10-09T13:27:09;24.1;58.1
78696;SHT31;68030;51.980;5.646;2023-10-09T13:29:39;24.1;57.9
78696;SHT31;68030;51.980;5.646;2023-10-09T13:32:08;24.1;58.1
78696;SHT31;68030;51.980;5.646;2023-10-09T13:34:42;24.1;58.5
78696;SHT31;68030;51.980;5.646;2023-10-09T13:37:13;24.1;58.3
78696;SHT31;68030;51.980;5.646;2023-10-09T13:39:46;24.2;58.5
78696;SHT31;68030;51.980;5.646;2023-10-09T13:42:23;24.2;58.3
78696;SHT31;68030;51.980;5.646;2023-10-09T13:44:53;24.2;58.1
78696;SHT31;68030;51.980;5.646;2023-10-09T13:47:22;24.2;58.1
78696;SHT31;68030;51.980;5.646;2023-10-09T13:49:55;24.2;57.8
78696;SHT31;68030;51.980;5.646;2023-10-09T13:52:24;24.2;57.7
78696;SHT31;68030;51.980;5.646;2023-10-09T13:54:53;24.2;57.8
78696;SHT31;68030;51.980;5.646;2023-10-09T13:57:24;24.1;58.2
78696;SHT31;68030;51.980;5.646;2023-10-09T13:59:58;24.1;58.1
78696;SHT31;68030;51.980;5.646;2023-10-09T14:02:28;24.1;58.3
78696;SHT31;68030;51.980;5.646;2023-10-09T14:04:57;24.1;58.6
78696;SHT31;68030;51.980;5.646;2023-10-09T14:07:27;24.1;58.4
78696;SHT31;68030;51.980;5.646;2023-10-09T14:09:56;24.1;58.9
78696;SHT31;68030;51.980;5.646;2023-10-09T14:12:30;24.1;59.0
78696;SHT31;68030;51.980;5.646;2023-10-09T14:15:00;24.1;58.7
78696;SHT31;68030;51.980;5.646;2023-10-09T14:17:30;24.1;58.4
78696;SHT31;68030;51.980;5.646;2023-10-09T14:19:58;24.1;58.3
78696;SHT31;68030;51.980;5.646;2023-10-09T14:22:33;24.1;57.9
78696;SHT31;68030;51.980;5.646;2023-10-09T14:25:08;24.1;58.0
78696;SHT31;68030;51.980;5.646;2023-10-09T14:27:41;24.1;58.5
78696;SHT31;68030;51.980;5.646;2023-10-09T14:30:11;24.0;58.1
78696;SHT31;68030;51.980;5.646;2023-10-09T14:32:45;24.0;58.4
78696;SHT31;68030;51.980;5.646;2023-10-09T14:35:18;24.0;58.8
78696;SHT31;68030;51.980;5.646;2023-10-09T14:37:48;23.9;58.7
78696;SHT31;68030;51.980;5.646;2023-10-09T14:40:17;23.9;59.1
78696;SHT31;68030;51.980;5.646;2023-10-09T14:42:48;23.9;58.6
78696;SHT31;68030;51.980;5.646;2023-10-09T14:45:18;23.8;58.6
78696;SHT31;68030;51.980;5.646;2023-10-09T14:47:48;23.8;58.6
78696;SHT31;68030;51.980;5.646;2023-10-09T14:50:16;23.8;58.9
78696;SHT31;68030;51.980;5.646;2023-10-09T14:52:49;23.7;58.9
78696;SHT31;68030;51.980;5.646;2023-10-09T14:55:19;23.7;58.8
78696;SHT31;68030;51.980;5.646;2023-10-09T14:57:54;23.7;59.0
78696;SHT31;68030;51.980;5.646;2023-10-09T15:00:24;23.7;59.2
78696;SHT31;68030;51.980;5.646;2023-10-09T15:02:53;23.7;59.2
78696;SHT31;68030;51.980;5.646;2023-10-09T15:05:21;23.7;59.3
78696;SHT31;68030;51.980;5.646;2023-10-09T15:07:52;23.7;59.4
78696;SHT31;68030;51.980;5.646;2023-10-09T15:10:21;23.7;59.4
78696;SHT31;68030;51.980;5.646;2023-10-09T15:12:50;23.7;59.3
78696;SHT31;68030;51.980;5.646;2023-10-09T15:15:21;23.7;59.3
78696;SHT31;68030;51.980;5.646;2023-10-09T15:17:52;23.7;59.3
78696;SHT31;68030;51.980;5.646;2023-10-09T15:20:20;23.7;59.3
78696;SHT31;68030;51.980;5.646;2023-10-09T15:22:49;23.7;59.1
78696;SHT31;68030;51.980;5.646;2023-10-09T15:25:19;23.7;59.4
78696;SHT31;68030;51.980;5.646;2023-10-09T15:27:48;23.6;59.4
78696;SHT31;68030;51.980;5.646;2023-10-09T15:30:17;23.6;59.5
78696;SHT31;68030;51.980;5.646;2023-10-09T15:32:45;23.6;59.9
78696;SHT31;68030;51.980;5.646;2023-10-09T15:35:16;23.5;59.8
78696;SHT31;68030;51.980;5.646;2023-10-09T15:37:45;23.5;59.6
78696;SHT31;68030;51.980;5.646;2023-10-09T15:40:14;23.5;60.0
78696;SHT31;68030;51.980;5.646;2023-10-09T15:42:45;23.5;60.1
78696;SHT31;68030;51.980;5.646;2023-10-09T15:45:16;23.4;60.2
78696;SHT31;68030;51.980;5.646;2023-10-09T15:47:47;23.4;60.1
78696;SHT31;68030;51.980;5.646;2023-10-09T15:50:18;23.4;60.2
78696;SHT31;68030;51.980;5.646;2023-10-09T15:52:49;23.4;60.7
78696;SHT31;68030;51.980;5.646;2023-10-09T15:55:19;23.3;60.8
78696;SHT31;68030;51.980;5.646;2023-10-09T15:57:53;23.3;61.0
78696;SHT31;68030;51.980;5.646;2023-10-09T16:00:22;23.3;61.3
78696;SHT31;68030;51.980;5.646;2023-10-09T16:02:55;23.3;61.5
78696;SHT31;68030;51.980;5.646;2023-10-09T16:05:27;23.2;61.7
78696;SHT31;68030;51.980;5.646;2023-10-09T16:07:58;23.2;61.8
78696;SHT31;68030;51.980;5.646;2023-10-09T16:10:29;23.2;61.7
78696;SHT31;68030;51.980;5.646;2023-10-09T16:12:58;23.2;61.8
78696;SHT31;68030;51.980;5.646;2023-10-09T16:15:27;23.2;61.9
78696;SHT31;68030;51.980;5.646;2023-10-09T16:17:56;23.1;61.7
78696;SHT31;68030;51.980;5.646;2023-10-09T16:20:32;23.1;61.5
78696;SHT31;68030;51.980;5.646;2023-10-09T16:23:04;23.1;61.7
78696;SHT31;68030;51.980;5.646;2023-10-09T16:25:33;23.0;61.8
78696;SHT31;68030;51.980;5.646;2023-10-09T16:28:03;23.0;61.9
78696;SHT31;68030;51.980;5.646;2023-10-09T16:30:32;23.0;62.1
78696;SHT31;68030;51.980;5.646;2023-10-09T16:33:02;22.9;62.3
78696;SHT31;68030;51.980;5.646;2023-10-09T16:35:31;22.9;62.3
78696;SHT31;68030;51.980;5.646;2023-10-09T16:38:01;22.9;62.3
78696;SHT31;68030;51.980;5.646;2023-10-09T16:40:35;22.9;62.6
78696;SHT31;68030;51.980;5.646;2023-10-09T16:43:04;22.8;62.7
78696;SHT31;68030;51.980;5.646;2023-10-09T16:45:39;22.8;62.6
78696;SHT31;68030;51.980;5.646;2023-10-09T16:48:11;22.8;62.5
78696;SHT31;68030;51.980;5.646;2023-10-09T16:50:41;22.8;62.7
78696;SHT31;68030;51.980;5.646;2023-10-09T16:53:13;22.8;62.7
78696;SHT31;68030;51.980;5.646;2023-10-09T16:55:45;22.8;63.0
78696;SHT31;68030;51.980;5.646;2023-10-09T16:58:15;22.7;62.9